sensor_id;sensor_type;location;lat;lon;timestamp;P1;durP1;ratioP1;P2;durP2;ratioP2
57848;SDS011;68645;44.762;21.516;2023-04-03T00:00:44;49.22;;;29.98;;
57848;SDS011;68645;44.762;21.516;2023-04-03T00:03:10;42.72;;;26.52;;
57848;SDS011;68645;44.762;21.516;2023-04-03T00:05:36;40.28;;;26.10;;
57848;SDS011;68645;44.762;21.516;2023-04-03T00:08:02;39.10;;;26.42;;
57848;SDS011;68645;44.762;21.516;2023-04-03T00:10:29;39.08;;;25.88;;
57848;SDS011;68645;44.762;21.516;2023-04-03T00:12:55;41.70;;;30.30;;
57848;SDS011;68645;44.762;21.516;2023-04-03T00:15:21;55.08;;;35.80;;
57848;SDS011;68645;44.762;21.516;2023-04-03T00:17:47;58.58;;;37.90;;
57848;SDS011;68645;44.762;21.516;2023-04-03T00:20:14;58.00;;;35.60;;
57848;SDS011;68645;44.762;21.516;2023-04-03T00:22:40;61.63;;;34.80;;
57848;SDS011;68645;44.762;21.516;2023-04-03T00:25:06;69.20;;;38.42;;
57848;SDS011;68645;44.762;21.516;2023-04-03T00:27:33;70.72;;;39.28;;
57848;SDS011;68645;44.762;21.516;2023-04-03T00:29:59;65.93;;;37.63;;
57848;SDS011;68645;44.762;21.516;2023-04-03T00:32:25;64.85;;;37.33;;
57848;SDS011;68645;44.762;21.516;2023-04-03T00:34:51;63.97;;;36.22;;
57848;SDS011;68645;44.762;21.516;2023-04-03T00:37:17;75.15;;;41.72;;
57848;SDS011;68645;44.762;21.516;2023-04-03T00:39:43;63.42;;;37.33;;
57848;SDS011;68645;44.762;21.516;2023-04-03T00:42:10;60.10;;;34.35;;
57848;SDS011;68645;44.762;21.516;2023-04-03T00:47:03;49.03;;;29.52;;
57848;SDS011;68645;44.762;21.516;2023-04-03T00:49:30;47.03;;;28.55;;
57848;SDS011;68645;44.762;21.516;2023-04-03T00:51:56;45.97;;;26.23;;
57848;SDS011;68645;44.762;21.516;2023-04-03T00:54:23;37.60;;;23.45;;
57848;SDS011;68645;44.762;21.516;2023-04-03T00:56:51;36.53;;;23.38;;
57848;SDS011;68645;44.762;21.516;2023-04-03T00:59:21;40.80;;;24.52;;
57848;SDS011;68645;44.762;21.516;2023-04-03T01:01:52;40.45;;;25.13;;
57848;SDS011;68645;44.762;21.516;2023-04-03T01:06:56;42.45;;;26.05;;
57848;SDS011;68645;44.762;21.516;2023-04-03T01:09:23;50.95;;;28.38;;
57848;SDS011;68645;44.762;21.516;2023-04-03T01:11:49;46.90;;;26.88;;
57848;SDS011;68645;44.762;21.516;2023-04-03T01:14:15;46.97;;;26.15;;
57848;SDS011;68645;44.762;21.516;2023-04-03T01:16:41;48.03;;;28.90;;
57848;SDS011;68645;44.762;21.516;2023-04-03T01:19:08;43.55;;;27.73;;
57848;SDS011;68645;44.762;21.516;2023-04-03T01:24:22;44.63;;;30.13;;
57848;SDS011;68645;44.762;21.516;2023-04-03T01:26:51;46.70;;;31.98;;
57848;SDS011;68645;44.762;21.516;2023-04-03T01:29:17;49.75;;;31.23;;
57848;SDS011;68645;44.762;21.516;2023-04-03T01:34:13;59.53;;;38.65;;
57848;SDS011;68645;44.762;21.516;2023-04-03T01:36:39;54.55;;;36.40;;
57848;SDS011;68645;44.762;21.516;2023-04-03T01:39:06;54.35;;;36.13;;
57848;SDS011;68645;44.762;21.516;2023-04-03T01:41:32;61.67;;;39.00;;
57848;SDS011;68645;44.762;21.516;2023-04-03T01:43:59;52.90;;;37.33;;
57848;SDS011;68645;44.762;21.516;2023-04-03T01:46:25;57.45;;;39.10;;
57848;SDS011;68645;44.762;21.516;2023-04-03T01:48:51;59.38;;;39.13;;
57848;SDS011;68645;44.762;21.516;2023-04-03T01:51:17;64.05;;;43.40;;
57848;SDS011;68645;44.762;21.516;2023-04-03T01:53:43;61.25;;;41.33;;
57848;SDS011;68645;44.762;21.516;2023-04-03T01:56:10;77.95;;;47.72;;
57848;SDS011;68645;44.762;21.516;2023-04-03T01:58:36;82.45;;;47.70;;
57848;SDS011;68645;44.762;21.516;2023-04-03T02:01:02;53.67;;;32.33;;
57848;SDS011;68645;44.762;21.516;2023-04-03T02:03:28;41.15;;;27.00;;
57848;SDS011;68645;44.762;21.516;2023-04-03T02:05:54;38.60;;;23.90;;
57848;SDS011;68645;44.762;21.516;2023-04-03T02:08:21;38.15;;;24.60;;
57848;SDS011;68645;44.762;21.516;2023-04-03T02:10:48;36.70;;;23.73;;
57848;SDS011;68645;44.762;21.516;2023-04-03T02:13:14;39.20;;;25.17;;
57848;SDS011;68645;44.762;21.516;2023-04-03T02:15:40;44.72;;;30.20;;
57848;SDS011;68645;44.762;21.516;2023-04-03T02:18:06;48.70;;;33.22;;
57848;SDS011;68645;44.762;21.516;2023-04-03T02:20:33;46.83;;;31.45;;
57848;SDS011;68645;44.762;21.516;2023-04-03T02:22:59;40.15;;;26.98;;
57848;SDS011;68645;44.762;21.516;2023-04-03T02:25:26;44.88;;;31.63;;
57848;SDS011;68645;44.762;21.516;2023-04-03T02:27:52;40.63;;;29.75;;
57848;SDS011;68645;44.762;21.516;2023-04-03T02:30:18;36.35;;;27.33;;
57848;SDS011;68645;44.762;21.516;2023-04-03T02:32:44;36.20;;;26.45;;
57848;SDS011;68645;44.762;21.516;2023-04-03T02:35:11;34.58;;;25.58;;
57848;SDS011;68645;44.762;21.516;2023-04-03T02:37:37;35.40;;;24.90;;
57848;SDS011;68645;44.762;21.516;2023-04-03T02:40:03;34.08;;;24.83;;
57848;SDS011;68645;44.762;21.516;2023-04-03T02:42:30;31.90;;;24.08;;
57848;SDS011;68645;44.762;21.516;2023-04-03T02:44:56;33.80;;;24.17;;
57848;SDS011;68645;44.762;21.516;2023-04-03T02:47:22;37.00;;;24.98;;
57848;SDS011;68645;44.762;21.516;2023-04-03T02:49:48;37.50;;;25.52;;
57848;SDS011;68645;44.762;21.516;2023-04-03T02:52:14;42.72;;;28.73;;
57848;SDS011;68645;44.762;21.516;2023-04-03T02:54:40;48.17;;;30.95;;
57848;SDS011;68645;44.762;21.516;2023-04-03T02:57:07;55.97;;;36.38;;
57848;SDS011;68645;44.762;21.516;2023-04-03T02:59:34;50.92;;;33.03;;
57848;SDS011;68645;44.762;21.516;2023-04-03T03:02:00;43.38;;;29.83;;
57848;SDS011;68645;44.762;21.516;2023-04-03T03:04:26;52.25;;;32.20;;
57848;SDS011;68645;44.762;21.516;2023-04-03T03:06:52;37.50;;;27.70;;
57848;SDS011;68645;44.762;21.516;2023-04-03T03:09:19;47.40;;;30.08;;
57848;SDS011;68645;44.762;21.516;2023-04-03T03:11:45;51.75;;;33.35;;
57848;SDS011;68645;44.762;21.516;2023-04-03T03:14:11;49.72;;;29.30;;
57848;SDS011;68645;44.762;21.516;2023-04-03T03:16:37;42.17;;;25.58;;
57848;SDS011;68645;44.762;21.516;2023-04-03T03:19:03;36.60;;;23.08;;
57848;SDS011;68645;44.762;21.516;2023-04-03T03:21:30;34.17;;;22.13;;
57848;SDS011;68645;44.762;21.516;2023-04-03T03:23:56;35.47;;;22.50;;
57848;SDS011;68645;44.762;21.516;2023-04-03T03:26:22;32.20;;;21.50;;
57848;SDS011;68645;44.762;21.516;2023-04-03T03:28:48;37.63;;;26.23;;
57848;SDS011;68645;44.762;21.516;2023-04-03T03:31:14;46.80;;;34.13;;
57848;SDS011;68645;44.762;21.516;2023-04-03T03:33:41;45.22;;;33.20;;
57848;SDS011;68645;44.762;21.516;2023-04-03T03:36:07;40.17;;;28.85;;
57848;SDS011;68645;44.762;21.516;2023-04-03T03:38:33;31.65;;;23.65;;
57848;SDS011;68645;44.762;21.516;2023-04-03T03:40:59;33.80;;;23.83;;
57848;SDS011;68645;44.762;21.516;2023-04-03T03:43:25;35.28;;;26.73;;
57848;SDS011;68645;44.762;21.516;2023-04-03T03:45:51;30.35;;;23.15;;
57848;SDS011;68645;44.762;21.516;2023-04-03T03:48:18;28.90;;;22.83;;
57848;SDS011;68645;44.762;21.516;2023-04-03T03:50:45;34.22;;;24.05;;
57848;SDS011;68645;44.762;21.516;2023-04-03T03:53:11;34.70;;;25.65;;
57848;SDS011;68645;44.762;21.516;2023-04-03T03:55:37;33.03;;;24.35;;
57848;SDS011;68645;44.762;21.516;2023-04-03T03:58:03;33.28;;;25.02;;
57848;SDS011;68645;44.762;21.516;2023-04-03T04:00:30;32.08;;;25.05;;
57848;SDS011;68645;44.762;21.516;2023-04-03T04:02:56;35.63;;;27.30;;
57848;SDS011;68645;44.762;21.516;2023-04-03T04:05:22;47.55;;;34.05;;
57848;SDS011;68645;44.762;21.516;2023-04-03T04:07:48;55.83;;;39.58;;
57848;SDS011;68645;44.762;21.516;2023-04-03T04:10:15;42.35;;;32.78;;
57848;SDS011;68645;44.762;21.516;2023-04-03T04:12:42;37.03;;;25.77;;
57848;SDS011;68645;44.762;21.516;2023-04-03T04:15:08;34.47;;;23.27;;
57848;SDS011;68645;44.762;21.516;2023-04-03T04:17:35;32.17;;;22.55;;
57848;SDS011;68645;44.762;21.516;2023-04-03T04:20:02;29.83;;;22.52;;
57848;SDS011;68645;44.762;21.516;2023-04-03T04:22:30;34.13;;;23.08;;
57848;SDS011;68645;44.762;21.516;2023-04-03T04:24:56;34.53;;;23.42;;
57848;SDS011;68645;44.762;21.516;2023-04-03T04:27:22;29.65;;;23.15;;
57848;SDS011;68645;44.762;21.516;2023-04-03T04:29:48;39.55;;;25.05;;
57848;SDS011;68645;44.762;21.516;2023-04-03T04:32:14;32.35;;;24.63;;
57848;SDS011;68645;44.762;21.516;2023-04-03T04:34:40;37.67;;;25.92;;
57848;SDS011;68645;44.762;21.516;2023-04-03T04:37:06;40.60;;;26.20;;
57848;SDS011;68645;44.762;21.516;2023-04-03T04:39:32;42.53;;;29.52;;
57848;SDS011;68645;44.762;21.516;2023-04-03T04:41:58;42.47;;;26.70;;
57848;SDS011;68645;44.762;21.516;2023-04-03T04:44:25;37.47;;;27.98;;
57848;SDS011;68645;44.762;21.516;2023-04-03T04:46:51;45.97;;;29.98;;
57848;SDS011;68645;44.762;21.516;2023-04-03T04:49:17;45.85;;;31.10;;
57848;SDS011;68645;44.762;21.516;2023-04-03T04:51:43;46.95;;;34.10;;
57848;SDS011;68645;44.762;21.516;2023-04-03T04:54:09;47.92;;;34.22;;
57848;SDS011;68645;44.762;21.516;2023-04-03T04:56:35;47.85;;;33.78;;
57848;SDS011;68645;44.762;21.516;2023-04-03T04:59:01;53.97;;;38.42;;
57848;SDS011;68645;44.762;21.516;2023-04-03T05:01:27;55.67;;;39.05;;
57848;SDS011;68645;44.762;21.516;2023-04-03T05:03:54;70.78;;;46.10;;
57848;SDS011;68645;44.762;21.516;2023-04-03T05:06:20;63.15;;;39.97;;
57848;SDS011;68645;44.762;21.516;2023-04-03T05:08:46;67.90;;;42.70;;
57848;SDS011;68645;44.762;21.516;2023-04-03T05:11:12;56.72;;;36.78;;
57848;SDS011;68645;44.762;21.516;2023-04-03T05:13:38;43.05;;;31.52;;
57848;SDS011;68645;44.762;21.516;2023-04-03T05:16:04;41.53;;;29.23;;
57848;SDS011;68645;44.762;21.516;2023-04-03T05:18:31;38.00;;;27.70;;
57848;SDS011;68645;44.762;21.516;2023-04-03T05:20:57;33.97;;;24.80;;
57848;SDS011;68645;44.762;21.516;2023-04-03T05:23:23;32.50;;;24.75;;
57848;SDS011;68645;44.762;21.516;2023-04-03T05:25:50;29.70;;;21.63;;
57848;SDS011;68645;44.762;21.516;2023-04-03T05:28:16;28.88;;;21.65;;
57848;SDS011;68645;44.762;21.516;2023-04-03T05:30:42;30.15;;;21.52;;
57848;SDS011;68645;44.762;21.516;2023-04-03T05:33:08;31.65;;;22.95;;
57848;SDS011;68645;44.762;21.516;2023-04-03T05:35:35;28.98;;;22.17;;
57848;SDS011;68645;44.762;21.516;2023-04-03T05:38:04;33.25;;;25.17;;
57848;SDS011;68645;44.762;21.516;2023-04-03T05:40:30;37.80;;;26.83;;
57848;SDS011;68645;44.762;21.516;2023-04-03T05:42:56;38.20;;;26.20;;
57848;SDS011;68645;44.762;21.516;2023-04-03T05:45:22;38.75;;;27.40;;
57848;SDS011;68645;44.762;21.516;2023-04-03T05:47:49;39.83;;;29.70;;
57848;SDS011;68645;44.762;21.516;2023-04-03T05:50:15;37.45;;;24.52;;
57848;SDS011;68645;44.762;21.516;2023-04-03T05:52:42;32.03;;;23.90;;
57848;SDS011;68645;44.762;21.516;2023-04-03T05:55:10;32.97;;;23.38;;
57848;SDS011;68645;44.762;21.516;2023-04-03T05:57:36;29.02;;;22.52;;
57848;SDS011;68645;44.762;21.516;2023-04-03T06:00:03;30.75;;;23.65;;
57848;SDS011;68645;44.762;21.516;2023-04-03T06:02:31;34.60;;;25.08;;
57848;SDS011;68645;44.762;21.516;2023-04-03T06:04:57;40.72;;;27.00;;
57848;SDS011;68645;44.762;21.516;2023-04-03T06:07:24;35.03;;;25.65;;
57848;SDS011;68645;44.762;21.516;2023-04-03T06:09:53;40.00;;;26.80;;
57848;SDS011;68645;44.762;21.516;2023-04-03T06:12:21;37.25;;;26.13;;
57848;SDS011;68645;44.762;21.516;2023-04-03T06:14:47;40.70;;;26.95;;
57848;SDS011;68645;44.762;21.516;2023-04-03T06:17:16;37.50;;;27.02;;
57848;SDS011;68645;44.762;21.516;2023-04-03T06:19:43;41.72;;;27.85;;
57848;SDS011;68645;44.762;21.516;2023-04-03T06:22:09;40.97;;;28.45;;
57848;SDS011;68645;44.762;21.516;2023-04-03T06:24:36;42.05;;;28.25;;
57848;SDS011;68645;44.762;21.516;2023-04-03T06:27:03;48.10;;;30.65;;
57848;SDS011;68645;44.762;21.516;2023-04-03T06:29:29;50.03;;;29.65;;
57848;SDS011;68645;44.762;21.516;2023-04-03T06:31:56;47.72;;;30.45;;
57848;SDS011;68645;44.762;21.516;2023-04-03T06:34:22;53.70;;;35.17;;
57848;SDS011;68645;44.762;21.516;2023-04-03T06:36:48;67.28;;;35.17;;
57848;SDS011;68645;44.762;21.516;2023-04-03T06:39:16;117.70;;;70.60;;
57848;SDS011;68645;44.762;21.516;2023-04-03T06:41:45;198.80;;;121.57;;
57848;SDS011;68645;44.762;21.516;2023-04-03T06:44:11;102.50;;;58.70;;
57848;SDS011;68645;44.762;21.516;2023-04-03T06:46:40;101.95;;;58.03;;
57848;SDS011;68645;44.762;21.516;2023-04-03T06:49:07;123.50;;;84.72;;
57848;SDS011;68645;44.762;21.516;2023-04-03T06:51:34;135.80;;;102.03;;
57848;SDS011;68645;44.762;21.516;2023-04-03T06:54:00;157.00;;;123.20;;
57848;SDS011;68645;44.762;21.516;2023-04-03T06:56:27;62.70;;;45.83;;
57848;SDS011;68645;44.762;21.516;2023-04-03T06:58:54;66.97;;;55.50;;
57848;SDS011;68645;44.762;21.516;2023-04-03T07:01:23;59.70;;;42.40;;
57848;SDS011;68645;44.762;21.516;2023-04-03T07:03:51;48.75;;;33.42;;
57848;SDS011;68645;44.762;21.516;2023-04-03T07:06:18;41.72;;;29.40;;
57848;SDS011;68645;44.762;21.516;2023-04-03T07:08:45;61.67;;;33.78;;
57848;SDS011;68645;44.762;21.516;2023-04-03T07:11:12;44.00;;;28.80;;
57848;SDS011;68645;44.762;21.516;2023-04-03T07:13:38;75.10;;;36.97;;
57848;SDS011;68645;44.762;21.516;2023-04-03T07:16:07;43.20;;;29.40;;
57848;SDS011;68645;44.762;21.516;2023-04-03T07:18:34;47.47;;;34.92;;
57848;SDS011;68645;44.762;21.516;2023-04-03T07:21:00;54.60;;;35.30;;
57848;SDS011;68645;44.762;21.516;2023-04-03T07:23:27;42.60;;;28.00;;
57848;SDS011;68645;44.762;21.516;2023-04-03T07:25:53;42.53;;;27.23;;
57848;SDS011;68645;44.762;21.516;2023-04-03T07:28:20;45.72;;;28.00;;
57848;SDS011;68645;44.762;21.516;2023-04-03T07:30:51;51.55;;;30.00;;
57848;SDS011;68645;44.762;21.516;2023-04-03T07:33:19;45.45;;;27.70;;
57848;SDS011;68645;44.762;21.516;2023-04-03T07:35:46;43.78;;;28.55;;
57848;SDS011;68645;44.762;21.516;2023-04-03T07:38:13;44.85;;;27.05;;
57848;SDS011;68645;44.762;21.516;2023-04-03T07:40:45;52.50;;;29.23;;
57848;SDS011;68645;44.762;21.516;2023-04-03T07:43:11;43.53;;;26.58;;
57848;SDS011;68645;44.762;21.516;2023-04-03T07:45:37;39.28;;;26.05;;
57848;SDS011;68645;44.762;21.516;2023-04-03T07:48:04;39.45;;;24.13;;
57848;SDS011;68645;44.762;21.516;2023-04-03T07:50:31;40.40;;;25.48;;
57848;SDS011;68645;44.762;21.516;2023-04-03T07:52:58;30.23;;;21.60;;
57848;SDS011;68645;44.762;21.516;2023-04-03T07:55:24;30.05;;;21.52;;
57848;SDS011;68645;44.762;21.516;2023-04-03T07:57:51;29.45;;;22.42;;
57848;SDS011;68645;44.762;21.516;2023-04-03T08:00:17;27.88;;;20.35;;
57848;SDS011;68645;44.762;21.516;2023-04-03T08:02:45;27.77;;;19.38;;
57848;SDS011;68645;44.762;21.516;2023-04-03T08:05:21;28.65;;;20.08;;
57848;SDS011;68645;44.762;21.516;2023-04-03T08:07:47;27.45;;;19.25;;
57848;SDS011;68645;44.762;21.516;2023-04-03T08:10:14;28.58;;;19.58;;
57848;SDS011;68645;44.762;21.516;2023-04-03T08:12:41;22.08;;;16.60;;
57848;SDS011;68645;44.762;21.516;2023-04-03T08:15:07;37.17;;;18.23;;
57848;SDS011;68645;44.762;21.516;2023-04-03T08:17:35;37.17;;;19.88;;
57848;SDS011;68645;44.762;21.516;2023-04-03T08:20:03;25.92;;;17.08;;
57848;SDS011;68645;44.762;21.516;2023-04-03T08:22:30;18.75;;;13.80;;
57848;SDS011;68645;44.762;21.516;2023-04-03T08:24:56;25.85;;;15.80;;
57848;SDS011;68645;44.762;21.516;2023-04-03T08:27:23;19.77;;;14.13;;
57848;SDS011;68645;44.762;21.516;2023-04-03T08:29:50;22.90;;;15.90;;
57848;SDS011;68645;44.762;21.516;2023-04-03T08:32:16;36.97;;;19.38;;
57848;SDS011;68645;44.762;21.516;2023-04-03T08:34:43;23.92;;;15.00;;
57848;SDS011;68645;44.762;21.516;2023-04-03T08:37:11;31.33;;;17.17;;
57848;SDS011;68645;44.762;21.516;2023-04-03T08:39:38;24.83;;;15.93;;
57848;SDS011;68645;44.762;21.516;2023-04-03T08:42:12;28.88;;;16.52;;
57848;SDS011;68645;44.762;21.516;2023-04-03T08:50:00;25.27;;;15.35;;
57848;SDS011;68645;44.762;21.516;2023-04-03T08:54:59;20.98;;;13.63;;
57848;SDS011;68645;44.762;21.516;2023-04-03T08:57:38;23.17;;;14.20;;
57848;SDS011;68645;44.762;21.516;2023-04-03T09:00:14;19.83;;;13.40;;
57848;SDS011;68645;44.762;21.516;2023-04-03T09:05:14;17.65;;;13.10;;
57848;SDS011;68645;44.762;21.516;2023-04-03T09:07:45;19.73;;;13.27;;
57848;SDS011;68645;44.762;21.516;2023-04-03T09:10:15;21.05;;;12.50;;
57848;SDS011;68645;44.762;21.516;2023-04-03T09:12:45;14.63;;;11.25;;
57848;SDS011;68645;44.762;21.516;2023-04-03T09:15:16;16.95;;;11.25;;
57848;SDS011;68645;44.762;21.516;2023-04-03T09:17:50;17.52;;;11.32;;
57848;SDS011;68645;44.762;21.516;2023-04-03T09:20:22;18.05;;;12.32;;
57848;SDS011;68645;44.762;21.516;2023-04-03T09:22:49;19.70;;;12.82;;
57848;SDS011;68645;44.762;21.516;2023-04-03T09:25:51;18.33;;;14.65;;
57848;SDS011;68645;44.762;21.516;2023-04-03T09:28:10;15.45;;;11.98;;
57848;SDS011;68645;44.762;21.516;2023-04-03T09:30:37;17.75;;;11.80;;
57848;SDS011;68645;44.762;21.516;2023-04-03T09:33:04;15.65;;;10.90;;
57848;SDS011;68645;44.762;21.516;2023-04-03T09:35:33;19.85;;;12.38;;
57848;SDS011;68645;44.762;21.516;2023-04-03T09:38:00;20.00;;;13.75;;
57848;SDS011;68645;44.762;21.516;2023-04-03T09:40:37;21.92;;;14.18;;
57848;SDS011;68645;44.762;21.516;2023-04-03T09:45:44;20.38;;;13.35;;
57848;SDS011;68645;44.762;21.516;2023-04-03T09:53:37;15.15;;;11.65;;
57848;SDS011;68645;44.762;21.516;2023-04-03T09:56:25;17.67;;;13.05;;
57848;SDS011;68645;44.762;21.516;2023-04-03T09:58:52;19.73;;;13.07;;
57848;SDS011;68645;44.762;21.516;2023-04-03T10:01:32;20.85;;;12.45;;
57848;SDS011;68645;44.762;21.516;2023-04-03T10:04:17;20.30;;;12.90;;
57848;SDS011;68645;44.762;21.516;2023-04-03T10:06:47;42.00;;;32.83;;
57848;SDS011;68645;44.762;21.516;2023-04-03T10:09:23;29.65;;;22.60;;
57848;SDS011;68645;44.762;21.516;2023-04-03T10:14:28;34.60;;;25.10;;
57848;SDS011;68645;44.762;21.516;2023-04-03T10:27:44;21.45;;;14.60;;
57848;SDS011;68645;44.762;21.516;2023-04-03T10:30:18;24.33;;;18.80;;
57848;SDS011;68645;44.762;21.516;2023-04-03T10:35:21;23.02;;;13.45;;
57848;SDS011;68645;44.762;21.516;2023-04-03T10:37:54;19.20;;;11.15;;
57848;SDS011;68645;44.762;21.516;2023-04-03T10:40:39;19.55;;;12.52;;
57848;SDS011;68645;44.762;21.516;2023-04-03T10:46:02;20.80;;;12.55;;
57848;SDS011;68645;44.762;21.516;2023-04-03T10:53:56;19.00;;;12.43;;
57848;SDS011;68645;44.762;21.516;2023-04-03T10:56:27;23.58;;;14.98;;
57848;SDS011;68645;44.762;21.516;2023-04-03T10:58:57;22.50;;;15.98;;
57848;SDS011;68645;44.762;21.516;2023-04-03T11:01:26;29.27;;;17.58;;
57848;SDS011;68645;44.762;21.516;2023-04-03T11:03:54;24.52;;;15.13;;
57848;SDS011;68645;44.762;21.516;2023-04-03T11:06:23;21.95;;;13.15;;
57848;SDS011;68645;44.762;21.516;2023-04-03T11:08:51;16.15;;;11.52;;
57848;SDS011;68645;44.762;21.516;2023-04-03T11:11:25;17.85;;;12.43;;
57848;SDS011;68645;44.762;21.516;2023-04-03T11:14:01;15.60;;;10.80;;
57848;SDS011;68645;44.762;21.516;2023-04-03T11:16:28;17.10;;;11.18;;
57848;SDS011;68645;44.762;21.516;2023-04-03T11:19:05;21.00;;;12.10;;
57848;SDS011;68645;44.762;21.516;2023-04-03T11:21:37;16.27;;;10.27;;
57848;SDS011;68645;44.762;21.516;2023-04-03T11:24:05;15.80;;;9.50;;
57848;SDS011;68645;44.762;21.516;2023-04-03T11:26:39;17.92;;;10.40;;
57848;SDS011;68645;44.762;21.516;2023-04-03T11:29:09;13.30;;;9.45;;
57848;SDS011;68645;44.762;21.516;2023-04-03T11:31:43;16.15;;;10.05;;
57848;SDS011;68645;44.762;21.516;2023-04-03T11:36:42;15.38;;;11.60;;
57848;SDS011;68645;44.762;21.516;2023-04-03T11:39:15;14.73;;;10.90;;
57848;SDS011;68645;44.762;21.516;2023-04-03T11:41:43;15.50;;;10.38;;
57848;SDS011;68645;44.762;21.516;2023-04-03T11:44:25;13.60;;;10.82;;
57848;SDS011;68645;44.762;21.516;2023-04-03T11:46:55;14.35;;;11.60;;
57848;SDS011;68645;44.762;21.516;2023-04-03T11:52:09;16.25;;;10.55;;
57848;SDS011;68645;44.762;21.516;2023-04-03T11:54:45;17.10;;;11.43;;
57848;SDS011;68645;44.762;21.516;2023-04-03T12:00:01;12.52;;;8.23;;
57848;SDS011;68645;44.762;21.516;2023-04-03T12:02:35;14.95;;;9.70;;
57848;SDS011;68645;44.762;21.516;2023-04-03T12:05:24;16.83;;;9.30;;
57848;SDS011;68645;44.762;21.516;2023-04-03T12:10:35;16.55;;;11.23;;
57848;SDS011;68645;44.762;21.516;2023-04-03T12:13:12;12.63;;;9.60;;
57848;SDS011;68645;44.762;21.516;2023-04-03T12:15:44;12.77;;;9.95;;
57848;SDS011;68645;44.762;21.516;2023-04-03T12:21:13;14.18;;;10.70;;
57848;SDS011;68645;44.762;21.516;2023-04-03T12:26:25;17.45;;;10.98;;
57848;SDS011;68645;44.762;21.516;2023-04-03T12:28:53;22.92;;;14.98;;
57848;SDS011;68645;44.762;21.516;2023-04-03T12:31:20;22.15;;;15.52;;
57848;SDS011;68645;44.762;21.516;2023-04-03T12:36:30;16.70;;;12.05;;
57848;SDS011;68645;44.762;21.516;2023-04-03T12:39:33;17.33;;;11.80;;
57848;SDS011;68645;44.762;21.516;2023-04-03T12:49:46;15.90;;;12.02;;
57848;SDS011;68645;44.762;21.516;2023-04-03T12:52:19;14.43;;;10.20;;
57848;SDS011;68645;44.762;21.516;2023-04-03T12:54:48;14.77;;;9.85;;
57848;SDS011;68645;44.762;21.516;2023-04-03T12:57:20;10.98;;;8.77;;
57848;SDS011;68645;44.762;21.516;2023-04-03T12:59:47;12.10;;;8.25;;
57848;SDS011;68645;44.762;21.516;2023-04-03T13:02:24;13.45;;;9.80;;
57848;SDS011;68645;44.762;21.516;2023-04-03T13:04:52;10.85;;;8.23;;
57848;SDS011;68645;44.762;21.516;2023-04-03T13:07:26;12.77;;;8.57;;
57848;SDS011;68645;44.762;21.516;2023-04-03T13:09:57;17.42;;;11.15;;
57848;SDS011;68645;44.762;21.516;2023-04-03T13:12:25;16.08;;;10.90;;
57848;SDS011;68645;44.762;21.516;2023-04-03T13:14:53;14.52;;;10.32;;
57848;SDS011;68645;44.762;21.516;2023-04-03T13:17:20;14.50;;;9.80;;
57848;SDS011;68645;44.762;21.516;2023-04-03T13:19:46;13.55;;;9.68;;
57848;SDS011;68645;44.762;21.516;2023-04-03T13:24:58;11.75;;;8.90;;
57848;SDS011;68645;44.762;21.516;2023-04-03T13:27:25;13.95;;;10.30;;
57848;SDS011;68645;44.762;21.516;2023-04-03T13:29:52;13.63;;;9.55;;
57848;SDS011;68645;44.762;21.516;2023-04-03T13:32:20;13.43;;;9.32;;
57848;SDS011;68645;44.762;21.516;2023-04-03T13:34:47;13.65;;;9.82;;
57848;SDS011;68645;44.762;21.516;2023-04-03T13:37:21;21.67;;;15.20;;
57848;SDS011;68645;44.762;21.516;2023-04-03T13:39:56;36.22;;;25.00;;
57848;SDS011;68645;44.762;21.516;2023-04-03T13:42:24;26.02;;;18.45;;
57848;SDS011;68645;44.762;21.516;2023-04-03T13:47:39;26.70;;;18.83;;
57848;SDS011;68645;44.762;21.516;2023-04-03T13:52:42;28.55;;;21.13;;
57848;SDS011;68645;44.762;21.516;2023-04-03T13:55:52;19.48;;;12.88;;
57848;SDS011;68645;44.762;21.516;2023-04-03T13:57:59;24.25;;;19.63;;
57848;SDS011;68645;44.762;21.516;2023-04-03T14:02:55;23.88;;;17.67;;
57848;SDS011;68645;44.762;21.516;2023-04-03T14:05:22;27.83;;;18.88;;
57848;SDS011;68645;44.762;21.516;2023-04-03T14:07:50;18.83;;;13.55;;
57848;SDS011;68645;44.762;21.516;2023-04-03T14:10:17;19.38;;;14.02;;
57848;SDS011;68645;44.762;21.516;2023-04-03T14:12:43;14.10;;;10.30;;
57848;SDS011;68645;44.762;21.516;2023-04-03T14:15:23;14.65;;;11.23;;
57848;SDS011;68645;44.762;21.516;2023-04-03T14:17:51;16.02;;;11.52;;
57848;SDS011;68645;44.762;21.516;2023-04-03T14:20:19;13.10;;;10.43;;
57848;SDS011;68645;44.762;21.516;2023-04-03T14:22:45;13.13;;;10.30;;
57848;SDS011;68645;44.762;21.516;2023-04-03T14:25:12;18.83;;;12.18;;
57848;SDS011;68645;44.762;21.516;2023-04-03T14:27:39;15.05;;;9.70;;
57848;SDS011;68645;44.762;21.516;2023-04-03T14:30:08;10.52;;;7.45;;
57848;SDS011;68645;44.762;21.516;2023-04-03T14:32:35;8.60;;;6.82;;
57848;SDS011;68645;44.762;21.516;2023-04-03T14:35:01;9.73;;;7.00;;
57848;SDS011;68645;44.762;21.516;2023-04-03T14:37:28;10.13;;;7.50;;
57848;SDS011;68645;44.762;21.516;2023-04-03T14:39:55;9.88;;;6.82;;
57848;SDS011;68645;44.762;21.516;2023-04-03T14:42:26;10.40;;;7.13;;
57848;SDS011;68645;44.762;21.516;2023-04-03T14:44:52;11.38;;;8.57;;
57848;SDS011;68645;44.762;21.516;2023-04-03T14:47:19;11.27;;;7.97;;
57848;SDS011;68645;44.762;21.516;2023-04-03T14:49:46;11.25;;;8.43;;
57848;SDS011;68645;44.762;21.516;2023-04-03T14:52:16;13.93;;;11.02;;
57848;SDS011;68645;44.762;21.516;2023-04-03T14:54:43;11.05;;;8.18;;
57848;SDS011;68645;44.762;21.516;2023-04-03T14:57:09;15.30;;;10.10;;
57848;SDS011;68645;44.762;21.516;2023-04-03T14:59:38;19.08;;;11.90;;
57848;SDS011;68645;44.762;21.516;2023-04-03T15:02:22;11.38;;;8.57;;
57848;SDS011;68645;44.762;21.516;2023-04-03T15:04:50;11.73;;;9.65;;
57848;SDS011;68645;44.762;21.516;2023-04-03T15:07:16;17.05;;;9.05;;
57848;SDS011;68645;44.762;21.516;2023-04-03T15:09:42;10.02;;;7.30;;
57848;SDS011;68645;44.762;21.516;2023-04-03T15:12:09;10.82;;;6.97;;
57848;SDS011;68645;44.762;21.516;2023-04-03T15:14:35;9.88;;;7.55;;
57848;SDS011;68645;44.762;21.516;2023-04-03T15:17:01;13.85;;;9.55;;
57848;SDS011;68645;44.762;21.516;2023-04-03T15:19:29;9.93;;;7.57;;
57848;SDS011;68645;44.762;21.516;2023-04-03T15:21:55;13.02;;;8.15;;
57848;SDS011;68645;44.762;21.516;2023-04-03T15:24:21;10.50;;;6.93;;
57848;SDS011;68645;44.762;21.516;2023-04-03T15:26:48;10.43;;;7.25;;
57848;SDS011;68645;44.762;21.516;2023-04-03T15:29:14;14.85;;;11.50;;
57848;SDS011;68645;44.762;21.516;2023-04-03T15:31:40;16.95;;;11.85;;
57848;SDS011;68645;44.762;21.516;2023-04-03T15:34:06;12.23;;;7.93;;
57848;SDS011;68645;44.762;21.516;2023-04-03T15:36:32;11.38;;;7.93;;
57848;SDS011;68645;44.762;21.516;2023-04-03T15:38:58;19.17;;;9.10;;
57848;SDS011;68645;44.762;21.516;2023-04-03T15:41:25;21.50;;;12.82;;
57848;SDS011;68645;44.762;21.516;2023-04-03T15:43:51;19.50;;;11.38;;
57848;SDS011;68645;44.762;21.516;2023-04-03T15:46:17;17.60;;;10.60;;